sensor_id;sensor_type;location;lat;lon;timestamp;P1;durP1;ratioP1;P2;durP2;ratioP2
46334;SDS011;32051;48.882;9.210;2022-07-23T00:02:02;7.53;;;3.28;;
46334;SDS011;32051;48.882;9.210;2022-07-23T00:04:28;6.75;;;3.92;;
46334;SDS011;32051;48.882;9.210;2022-07-23T00:06:53;6.38;;;3.25;;
46334;SDS011;32051;48.882;9.210;2022-07-23T00:09:19;4.70;;;3.35;;
46334;SDS011;32051;48.882;9.210;2022-07-23T00:11:45;5.05;;;3.15;;
46334;SDS011;32051;48.882;9.210;2022-07-23T00:14:10;2.80;;;2.53;;
46334;SDS011;32051;48.882;9.210;2022-07-23T00:16:36;4.28;;;2.60;;
46334;SDS011;32051;48.882;9.210;2022-07-23T00:19:02;6.72;;;3.22;;
46334;SDS011;32051;48.882;9.210;2022-07-23T00:21:27;3.38;;;2.92;;
46334;SDS011;32051;48.882;9.210;2022-07-23T00:23:53;4.82;;;2.92;;
46334;SDS011;32051;48.882;9.210;2022-07-23T00:26:19;7.68;;;3.38;;
46334;SDS011;32051;48.882;9.210;2022-07-23T00:28:45;2.75;;;2.55;;
46334;SDS011;32051;48.882;9.210;2022-07-23T00:31:10;3.67;;;3.17;;
46334;SDS011;32051;48.882;9.210;2022-07-23T00:33:36;2.63;;;2.53;;
46334;SDS011;32051;48.882;9.210;2022-07-23T00:36:02;5.00;;;2.25;;
46334;SDS011;32051;48.882;9.210;2022-07-23T00:38:28;3.35;;;2.63;;
46334;SDS011;32051;48.882;9.210;2022-07-23T00:40:53;3.00;;;2.78;;
46334;SDS011;32051;48.882;9.210;2022-07-23T00:43:20;3.97;;;2.55;;
46334;SDS011;32051;48.882;9.210;2022-07-23T00:45:47;1.98;;;1.88;;
46334;SDS011;32051;48.882;9.210;2022-07-23T00:48:12;3.33;;;2.58;;
46334;SDS011;32051;48.882;9.210;2022-07-23T00:50:38;2.70;;;2.50;;
46334;SDS011;32051;48.882;9.210;2022-07-23T00:53:04;4.47;;;2.65;;
46334;SDS011;32051;48.882;9.210;2022-07-23T00:55:30;2.90;;;2.65;;
46334;SDS011;32051;48.882;9.210;2022-07-23T00:57:57;2.60;;;2.50;;
46334;SDS011;32051;48.882;9.210;2022-07-23T01:00:24;2.92;;;2.72;;
46334;SDS011;32051;48.882;9.210;2022-07-23T01:02:50;3.03;;;2.83;;
46334;SDS011;32051;48.882;9.210;2022-07-23T01:05:16;2.30;;;2.10;;
46334;SDS011;32051;48.882;9.210;2022-07-23T01:07:46;2.70;;;2.53;;
46334;SDS011;32051;48.882;9.210;2022-07-23T01:10:16;4.50;;;2.00;;
46334;SDS011;32051;48.882;9.210;2022-07-23T01:13:03;2.80;;;2.42;;
46334;SDS011;32051;48.882;9.210;2022-07-23T01:15:31;2.97;;;2.78;;
46334;SDS011;32051;48.882;9.210;2022-07-23T01:17:57;5.13;;;2.45;;
46334;SDS011;32051;48.882;9.210;2022-07-23T01:20:23;3.05;;;2.75;;
46334;SDS011;32051;48.882;9.210;2022-07-23T01:22:51;2.95;;;2.75;;
46334;SDS011;32051;48.882;9.210;2022-07-23T01:25:17;3.00;;;2.80;;
46334;SDS011;32051;48.882;9.210;2022-07-23T01:27:52;2.47;;;2.33;;
46334;SDS011;32051;48.882;9.210;2022-07-23T01:30:18;3.45;;;2.80;;
46334;SDS011;32051;48.882;9.210;2022-07-23T01:32:45;5.07;;;4.00;;
46334;SDS011;32051;48.882;9.210;2022-07-23T01:35:12;4.40;;;3.92;;
46334;SDS011;32051;48.882;9.210;2022-07-23T01:37:38;2.90;;;2.70;;
46334;SDS011;32051;48.882;9.210;2022-07-23T01:40:05;5.15;;;2.83;;
46334;SDS011;32051;48.882;9.210;2022-07-23T01:42:31;2.65;;;2.45;;
46334;SDS011;32051;48.882;9.210;2022-07-23T01:44:57;3.10;;;2.90;;
46334;SDS011;32051;48.882;9.210;2022-07-23T01:47:23;3.72;;;2.50;;
46334;SDS011;32051;48.882;9.210;2022-07-23T01:49:51;3.03;;;2.83;;
46334;SDS011;32051;48.882;9.210;2022-07-23T01:52:43;2.85;;;2.65;;
46334;SDS011;32051;48.882;9.210;2022-07-23T01:55:09;3.28;;;3.08;;
46334;SDS011;32051;48.882;9.210;2022-07-23T01:57:37;4.75;;;3.42;;
46334;SDS011;32051;48.882;9.210;2022-07-23T02:00:04;3.78;;;2.40;;
46334;SDS011;32051;48.882;9.210;2022-07-23T02:02:38;3.03;;;2.72;;
46334;SDS011;32051;48.882;9.210;2022-07-23T02:05:04;2.58;;;2.47;;
46334;SDS011;32051;48.882;9.210;2022-07-23T02:07:30;5.05;;;2.78;;
46334;SDS011;32051;48.882;9.210;2022-07-23T02:09:58;4.03;;;3.15;;
46334;SDS011;32051;48.882;9.210;2022-07-23T02:12:23;3.95;;;3.08;;
46334;SDS011;32051;48.882;9.210;2022-07-23T02:14:49;3.40;;;3.10;;
46334;SDS011;32051;48.882;9.210;2022-07-23T02:17:15;2.83;;;2.63;;
46334;SDS011;32051;48.882;9.210;2022-07-23T02:19:40;2.75;;;2.55;;
46334;SDS011;32051;48.882;9.210;2022-07-23T02:22:06;3.25;;;3.05;;
46334;SDS011;32051;48.882;9.210;2022-07-23T02:24:32;4.18;;;2.78;;
46334;SDS011;32051;48.882;9.210;2022-07-23T02:26:57;2.60;;;2.50;;
46334;SDS011;32051;48.882;9.210;2022-07-23T02:29:23;2.78;;;2.55;;
46334;SDS011;32051;48.882;9.210;2022-07-23T02:31:49;3.28;;;2.70;;
46334;SDS011;32051;48.882;9.210;2022-07-23T02:34:14;2.88;;;2.67;;
46334;SDS011;32051;48.882;9.210;2022-07-23T02:36:40;12.30;;;2.83;;
46334;SDS011;32051;48.882;9.210;2022-07-23T02:39:06;2.88;;;2.67;;
46334;SDS011;32051;48.882;9.210;2022-07-23T02:41:34;2.75;;;2.45;;
46334;SDS011;32051;48.882;9.210;2022-07-23T02:43:59;2.88;;;2.67;;
46334;SDS011;32051;48.882;9.210;2022-07-23T02:46:26;4.65;;;2.80;;
46334;SDS011;32051;48.882;9.210;2022-07-23T02:48:53;4.28;;;2.85;;
46334;SDS011;32051;48.882;9.210;2022-07-23T02:51:18;2.90;;;2.70;;
46334;SDS011;32051;48.882;9.210;2022-07-23T02:53:53;2.33;;;2.20;;
46334;SDS011;32051;48.882;9.210;2022-07-23T02:56:19;2.58;;;2.35;;
46334;SDS011;32051;48.882;9.210;2022-07-23T02:58:45;4.18;;;2.75;;
46334;SDS011;32051;48.882;9.210;2022-07-23T03:01:12;6.85;;;3.35;;
46334;SDS011;32051;48.882;9.210;2022-07-23T03:03:38;3.00;;;2.85;;
46334;SDS011;32051;48.882;9.210;2022-07-23T03:06:03;2.75;;;2.42;;
46334;SDS011;32051;48.882;9.210;2022-07-23T03:08:29;3.20;;;2.90;;
46334;SDS011;32051;48.882;9.210;2022-07-23T03:10:55;3.42;;;3.13;;
46334;SDS011;32051;48.882;9.210;2022-07-23T03:13:21;2.95;;;2.65;;
46334;SDS011;32051;48.882;9.210;2022-07-23T03:15:47;3.13;;;2.92;;
46334;SDS011;32051;48.882;9.210;2022-07-23T03:18:12;3.50;;;3.10;;
46334;SDS011;32051;48.882;9.210;2022-07-23T03:20:38;3.80;;;3.50;;
46334;SDS011;32051;48.882;9.210;2022-07-23T03:23:04;3.50;;;3.30;;
46334;SDS011;32051;48.882;9.210;2022-07-23T03:25:30;5.88;;;3.22;;
46334;SDS011;32051;48.882;9.210;2022-07-23T03:27:56;2.67;;;2.47;;
46334;SDS011;32051;48.882;9.210;2022-07-23T03:30:25;4.35;;;3.10;;
46334;SDS011;32051;48.882;9.210;2022-07-23T03:32:50;3.47;;;3.28;;
46334;SDS011;32051;48.882;9.210;2022-07-23T03:35:16;2.72;;;2.63;;
46334;SDS011;32051;48.882;9.210;2022-07-23T03:37:49;3.15;;;2.83;;
46334;SDS011;32051;48.882;9.210;2022-07-23T03:40:15;4.10;;;3.05;;
46334;SDS011;32051;48.882;9.210;2022-07-23T03:42:41;3.35;;;2.95;;
46334;SDS011;32051;48.882;9.210;2022-07-23T03:45:09;3.78;;;3.50;;
46334;SDS011;32051;48.882;9.210;2022-07-23T03:47:34;4.18;;;3.83;;
46334;SDS011;32051;48.882;9.210;2022-07-23T03:50:00;2.78;;;2.67;;
46334;SDS011;32051;48.882;9.210;2022-07-23T03:52:26;3.60;;;3.40;;
46334;SDS011;32051;48.882;9.210;2022-07-23T03:54:52;3.22;;;3.00;;
46334;SDS011;32051;48.882;9.210;2022-07-23T03:57:18;4.38;;;2.88;;
46334;SDS011;32051;48.882;9.210;2022-07-23T03:59:43;3.45;;;2.80;;
46334;SDS011;32051;48.882;9.210;2022-07-23T04:02:10;3.22;;;3.03;;
46334;SDS011;32051;48.882;9.210;2022-07-23T04:04:36;3.22;;;2.97;;
46334;SDS011;32051;48.882;9.210;2022-07-23T04:07:02;2.80;;;2.60;;
46334;SDS011;32051;48.882;9.210;2022-07-23T04:09:29;4.47;;;3.40;;
46334;SDS011;32051;48.882;9.210;2022-07-23T04:11:55;5.35;;;2.75;;
46334;SDS011;32051;48.882;9.210;2022-07-23T04:14:21;3.83;;;3.22;;
46334;SDS011;32051;48.882;9.210;2022-07-23T04:16:46;3.35;;;3.15;;
46334;SDS011;32051;48.882;9.210;2022-07-23T04:19:12;3.08;;;2.78;;
46334;SDS011;32051;48.882;9.210;2022-07-23T04:21:54;3.15;;;2.85;;
46334;SDS011;32051;48.882;9.210;2022-07-23T04:24:19;2.55;;;2.45;;
46334;SDS011;32051;48.882;9.210;2022-07-23T04:26:46;6.70;;;2.80;;
46334;SDS011;32051;48.882;9.210;2022-07-23T04:29:11;3.42;;;3.22;;
46334;SDS011;32051;48.882;9.210;2022-07-23T04:31:37;3.47;;;3.22;;
46334;SDS011;32051;48.882;9.210;2022-07-23T04:34:04;3.10;;;2.90;;
46334;SDS011;32051;48.882;9.210;2022-07-23T04:36:30;4.47;;;3.40;;
46334;SDS011;32051;48.882;9.210;2022-07-23T04:38:56;3.92;;;3.40;;
46334;SDS011;32051;48.882;9.210;2022-07-23T04:41:22;3.88;;;3.58;;
46334;SDS011;32051;48.882;9.210;2022-07-23T04:43:47;3.33;;;3.10;;
46334;SDS011;32051;48.882;9.210;2022-07-23T04:46:13;3.85;;;3.55;;
46334;SDS011;32051;48.882;9.210;2022-07-23T04:48:45;4.10;;;3.20;;
46334;SDS011;32051;48.882;9.210;2022-07-23T04:51:11;3.25;;;3.05;;
46334;SDS011;32051;48.882;9.210;2022-07-23T04:53:37;3.90;;;3.70;;
46334;SDS011;32051;48.882;9.210;2022-07-23T04:56:04;4.80;;;2.92;;
46334;SDS011;32051;48.882;9.210;2022-07-23T04:58:31;3.40;;;3.10;;
46334;SDS011;32051;48.882;9.210;2022-07-23T05:00:57;3.13;;;2.92;;
46334;SDS011;32051;48.882;9.210;2022-07-23T05:03:23;3.33;;;3.13;;
46334;SDS011;32051;48.882;9.210;2022-07-23T05:05:49;3.03;;;2.80;;
46334;SDS011;32051;48.882;9.210;2022-07-23T05:08:17;3.83;;;3.50;;
46334;SDS011;32051;48.882;9.210;2022-07-23T05:10:48;4.13;;;3.00;;
46334;SDS011;32051;48.882;9.210;2022-07-23T05:13:14;6.18;;;2.85;;
46334;SDS011;32051;48.882;9.210;2022-07-23T05:15:41;3.25;;;3.05;;
46334;SDS011;32051;48.882;9.210;2022-07-23T05:18:07;3.45;;;3.15;;
46334;SDS011;32051;48.882;9.210;2022-07-23T05:20:33;7.03;;;2.75;;
46334;SDS011;32051;48.882;9.210;2022-07-23T05:22:59;4.80;;;3.28;;
46334;SDS011;32051;48.882;9.210;2022-07-23T05:25:25;6.05;;;3.05;;
46334;SDS011;32051;48.882;9.210;2022-07-23T05:27:51;6.90;;;2.88;;
46334;SDS011;32051;48.882;9.210;2022-07-23T05:30:17;3.25;;;2.97;;
46334;SDS011;32051;48.882;9.210;2022-07-23T05:32:45;3.22;;;2.97;;
46334;SDS011;32051;48.882;9.210;2022-07-23T05:35:15;3.08;;;2.78;;
46334;SDS011;32051;48.882;9.210;2022-07-23T05:37:47;7.05;;;2.97;;
46334;SDS011;32051;48.882;9.210;2022-07-23T05:40:13;5.95;;;3.08;;
46334;SDS011;32051;48.882;9.210;2022-07-23T05:42:39;5.25;;;2.97;;
46334;SDS011;32051;48.882;9.210;2022-07-23T05:45:07;4.40;;;2.97;;
46334;SDS011;32051;48.882;9.210;2022-07-23T05:47:40;4.65;;;3.42;;
46334;SDS011;32051;48.882;9.210;2022-07-23T05:50:12;8.05;;;4.35;;
46334;SDS011;32051;48.882;9.210;2022-07-23T05:52:46;3.28;;;3.00;;
46334;SDS011;32051;48.882;9.210;2022-07-23T05:55:31;3.70;;;3.40;;
46334;SDS011;32051;48.882;9.210;2022-07-23T05:57:58;3.55;;;3.00;;
46334;SDS011;32051;48.882;9.210;2022-07-23T06:00:26;3.28;;;3.08;;
46334;SDS011;32051;48.882;9.210;2022-07-23T06:02:52;6.30;;;3.60;;
46334;SDS011;32051;48.882;9.210;2022-07-23T06:05:20;4.38;;;3.97;;
46334;SDS011;32051;48.882;9.210;2022-07-23T06:07:46;3.67;;;3.22;;
46334;SDS011;32051;48.882;9.210;2022-07-23T06:10:13;3.10;;;2.90;;
46334;SDS011;32051;48.882;9.210;2022-07-23T06:12:39;3.58;;;3.28;;
46334;SDS011;32051;48.882;9.210;2022-07-23T06:15:05;7.88;;;3.40;;
46334;SDS011;32051;48.882;9.210;2022-07-23T06:17:32;4.13;;;3.60;;
46334;SDS011;32051;48.882;9.210;2022-07-23T06:19:58;4.47;;;3.65;;
46334;SDS011;32051;48.882;9.210;2022-07-23T06:22:24;5.13;;;3.42;;
46334;SDS011;32051;48.882;9.210;2022-07-23T06:24:50;3.38;;;3.08;;
46334;SDS011;32051;48.882;9.210;2022-07-23T06:27:20;8.15;;;3.58;;
46334;SDS011;32051;48.882;9.210;2022-07-23T06:29:46;4.70;;;4.35;;
46334;SDS011;32051;48.882;9.210;2022-07-23T06:32:11;5.53;;;2.97;;
46334;SDS011;32051;48.882;9.210;2022-07-23T06:34:37;3.85;;;3.55;;
46334;SDS011;32051;48.882;9.210;2022-07-23T06:37:03;5.22;;;3.67;;
46334;SDS011;32051;48.882;9.210;2022-07-23T06:39:29;3.83;;;3.53;;
46334;SDS011;32051;48.882;9.210;2022-07-23T06:41:56;6.35;;;3.83;;
46334;SDS011;32051;48.882;9.210;2022-07-23T06:44:34;6.55;;;3.75;;
46334;SDS011;32051;48.882;9.210;2022-07-23T06:47:00;4.93;;;3.78;;
46334;SDS011;32051;48.882;9.210;2022-07-23T06:49:26;4.78;;;4.38;;
46334;SDS011;32051;48.882;9.210;2022-07-23T06:51:51;6.78;;;3.78;;
46334;SDS011;32051;48.882;9.210;2022-07-23T06:54:17;6.88;;;3.38;;
46334;SDS011;32051;48.882;9.210;2022-07-23T06:56:43;4.32;;;3.90;;
46334;SDS011;32051;48.882;9.210;2022-07-23T06:59:09;4.07;;;3.50;;
46334;SDS011;32051;48.882;9.210;2022-07-23T07:01:35;4.43;;;3.70;;
46334;SDS011;32051;48.882;9.210;2022-07-23T07:04:01;4.72;;;3.90;;
46334;SDS011;32051;48.882;9.210;2022-07-23T07:06:26;4.18;;;3.78;;
46334;SDS011;32051;48.882;9.210;2022-07-23T07:08:52;3.90;;;3.60;;
46334;SDS011;32051;48.882;9.210;2022-07-23T07:11:18;6.90;;;4.32;;
46334;SDS011;32051;48.882;9.210;2022-07-23T07:13:43;4.63;;;4.32;;
46334;SDS011;32051;48.882;9.210;2022-07-23T07:16:09;5.15;;;3.90;;
46334;SDS011;32051;48.882;9.210;2022-07-23T07:18:35;5.25;;;3.95;;
46334;SDS011;32051;48.882;9.210;2022-07-23T07:21:00;3.83;;;3.63;;
46334;SDS011;32051;48.882;9.210;2022-07-23T07:23:26;6.32;;;4.55;;
46334;SDS011;32051;48.882;9.210;2022-07-23T07:25:52;4.18;;;3.97;;
46334;SDS011;32051;48.882;9.210;2022-07-23T07:28:18;4.35;;;3.92;;
46334;SDS011;32051;48.882;9.210;2022-07-23T07:30:44;4.40;;;3.70;;
46334;SDS011;32051;48.882;9.210;2022-07-23T07:33:11;12.73;;;4.07;;
46334;SDS011;32051;48.882;9.210;2022-07-23T07:35:37;5.45;;;5.05;;
46334;SDS011;32051;48.882;9.210;2022-07-23T07:38:03;8.80;;;4.75;;
46334;SDS011;32051;48.882;9.210;2022-07-23T07:40:29;6.22;;;5.63;;
46334;SDS011;32051;48.882;9.210;2022-07-23T07:42:55;5.22;;;4.93;;
46334;SDS011;32051;48.882;9.210;2022-07-23T07:45:22;12.18;;;5.00;;
46334;SDS011;32051;48.882;9.210;2022-07-23T07:47:48;8.27;;;5.20;;
46334;SDS011;32051;48.882;9.210;2022-07-23T07:50:14;5.75;;;5.10;;
46334;SDS011;32051;48.882;9.210;2022-07-23T07:52:40;5.43;;;4.85;;
46334;SDS011;32051;48.882;9.210;2022-07-23T07:55:08;5.47;;;5.13;;
46334;SDS011;32051;48.882;9.210;2022-07-23T07:57:34;5.15;;;3.92;;
46334;SDS011;32051;48.882;9.210;2022-07-23T08:00:01;6.05;;;4.00;;
46334;SDS011;32051;48.882;9.210;2022-07-23T08:02:50;4.47;;;4.18;;
46334;SDS011;32051;48.882;9.210;2022-07-23T08:05:20;5.47;;;4.38;;
46334;SDS011;32051;48.882;9.210;2022-07-23T08:07:46;6.80;;;4.38;;
46334;SDS011;32051;48.882;9.210;2022-07-23T08:10:13;3.88;;;3.55;;
46334;SDS011;32051;48.882;9.210;2022-07-23T08:12:46;3.97;;;3.75;;
46334;SDS011;32051;48.882;9.210;2022-07-23T08:15:13;4.13;;;3.83;;
46334;SDS011;32051;48.882;9.210;2022-07-23T08:17:40;4.78;;;4.40;;
46334;SDS011;32051;48.882;9.210;2022-07-23T08:20:06;5.10;;;4.20;;
46334;SDS011;32051;48.882;9.210;2022-07-23T08:22:43;3.70;;;3.50;;
46334;SDS011;32051;48.882;9.210;2022-07-23T08:25:09;4.18;;;3.88;;
46334;SDS011;32051;48.882;9.210;2022-07-23T08:27:35;6.55;;;3.92;;
46334;SDS011;32051;48.882;9.210;2022-07-23T08:30:02;4.85;;;4.13;;
46334;SDS011;32051;48.882;9.210;2022-07-23T08:32:28;4.07;;;3.65;;
46334;SDS011;32051;48.882;9.210;2022-07-23T08:34:54;4.20;;;3.80;;
46334;SDS011;32051;48.882;9.210;2022-07-23T08:37:20;4.45;;;4.05;;
46334;SDS011;32051;48.882;9.210;2022-07-23T08:39:46;4.43;;;3.88;;
46334;SDS011;32051;48.882;9.210;2022-07-23T08:42:13;4.57;;;4.28;;
46334;SDS011;32051;48.882;9.210;2022-07-23T08:44:44;4.38;;;3.97;;
46334;SDS011;32051;48.882;9.210;2022-07-23T08:47:11;5.60;;;3.58;;
46334;SDS011;32051;48.882;9.210;2022-07-23T08:49:38;5.68;;;4.45;;
46334;SDS011;32051;48.882;9.210;2022-07-23T08:52:04;4.32;;;3.97;;
46334;SDS011;32051;48.882;9.210;2022-07-23T08:54:31;4.20;;;3.80;;
46334;SDS011;32051;48.882;9.210;2022-07-23T08:56:57;8.52;;;3.80;;
46334;SDS011;32051;48.882;9.210;2022-07-23T08:59:23;3.88;;;3.58;;
46334;SDS011;32051;48.882;9.210;2022-07-23T09:01:51;4.22;;;3.92;;
46334;SDS011;32051;48.882;9.210;2022-07-23T09:04:18;4.28;;;3.85;;
46334;SDS011;32051;48.882;9.210;2022-07-23T09:06:44;3.30;;;3.00;;
46334;SDS011;32051;48.882;9.210;2022-07-23T09:09:20;4.15;;;3.85;;
46334;SDS011;32051;48.882;9.210;2022-07-23T09:11:46;3.50;;;3.30;;
46334;SDS011;32051;48.882;9.210;2022-07-23T09:14:12;3.85;;;3.50;;
46334;SDS011;32051;48.882;9.210;2022-07-23T09:16:39;3.70;;;3.40;;
46334;SDS011;32051;48.882;9.210;2022-07-23T09:19:05;3.90;;;3.60;;
46334;SDS011;32051;48.882;9.210;2022-07-23T09:21:33;3.65;;;3.40;;
46334;SDS011;32051;48.882;9.210;2022-07-23T09:24:06;3.50;;;3.20;;
46334;SDS011;32051;48.882;9.210;2022-07-23T09:26:34;4.60;;;3.25;;
46334;SDS011;32051;48.882;9.210;2022-07-23T09:31:31;7.38;;;2.75;;
46334;SDS011;32051;48.882;9.210;2022-07-23T09:34:08;3.17;;;2.88;;
46334;SDS011;32051;48.882;9.210;2022-07-23T09:36:35;2.67;;;2.40;;
46334;SDS011;32051;48.882;9.210;2022-07-23T09:39:01;2.85;;;2.65;;
46334;SDS011;32051;48.882;9.210;2022-07-23T09:41:33;4.50;;;3.33;;
46334;SDS011;32051;48.882;9.210;2022-07-23T09:44:06;3.90;;;2.40;;
46334;SDS011;32051;48.882;9.210;2022-07-23T09:46:32;4.80;;;3.20;;
46334;SDS011;32051;48.882;9.210;2022-07-23T09:48:58;2.65;;;2.47;;
46334;SDS011;32051;48.882;9.210;2022-07-23T09:51:43;3.50;;;3.20;;
46334;SDS011;32051;48.882;9.210;2022-07-23T09:54:20;2.92;;;2.78;;
46334;SDS011;32051;48.882;9.210;2022-07-23T09:56:47;3.03;;;2.83;;
46334;SDS011;32051;48.882;9.210;2022-07-23T09:59:14;4.68;;;3.22;;
46334;SDS011;32051;48.882;9.210;2022-07-23T10:01:44;3.58;;;3.28;;
46334;SDS011;32051;48.882;9.210;2022-07-23T10:04:11;3.25;;;2.78;;
46334;SDS011;32051;48.882;9.210;2022-07-23T10:06:54;4.95;;;3.10;;
46334;SDS011;32051;48.882;9.210;2022-07-23T10:09:39;3.53;;;3.33;;
46334;SDS011;32051;48.882;9.210;2022-07-23T10:12:29;3.17;;;2.97;;
46334;SDS011;32051;48.882;9.210;2022-07-23T10:15:15;3.40;;;3.10;;
46334;SDS011;32051;48.882;9.210;2022-07-23T10:17:41;3.88;;;3.58;;
46334;SDS011;32051;48.882;9.210;2022-07-23T10:20:07;4.28;;;3.40;;
46334;SDS011;32051;48.882;9.210;2022-07-23T10:22:35;2.72;;;2.53;;
46334;SDS011;32051;48.882;9.210;2022-07-23T10:25:18;3.33;;;3.13;;
46334;SDS011;32051;48.882;9.210;2022-07-23T10:28:11;4.38;;;4.00;;
46334;SDS011;32051;48.882;9.210;2022-07-23T10:33:41;3.08;;;2.88;;
46334;SDS011;32051;48.882;9.210;2022-07-23T10:36:15;3.65;;;3.35;;
46334;SDS011;32051;48.882;9.210;2022-07-23T10:39:03;3.00;;;2.80;;
46334;SDS011;32051;48.882;9.210;2022-07-23T10:41:38;3.63;;;3.35;;
46334;SDS011;32051;48.882;9.210;2022-07-23T10:44:12;3.45;;;3.15;;
46334;SDS011;32051;48.882;9.210;2022-07-23T10:46:57;3.60;;;3.30;;
46334;SDS011;32051;48.882;9.210;2022-07-23T10:49:33;2.83;;;2.60;;
46334;SDS011;32051;48.882;9.210;2022-07-23T10:54:45;3.38;;;2.97;;
46334;SDS011;32051;48.882;9.210;2022-07-23T10:57:12;3.55;;;2.90;;
46334;SDS011;32051;48.882;9.210;2022-07-23T11:02:24;3.40;;;3.20;;
46334;SDS011;32051;48.882;9.210;2022-07-23T11:04:51;4.80;;;2.60;;
46334;SDS011;32051;48.882;9.210;2022-07-23T11:07:17;3.05;;;2.85;;
46334;SDS011;32051;48.882;9.210;2022-07-23T11:09:44;2.80;;;2.45;;
46334;SDS011;32051;48.882;9.210;2022-07-23T11:15:06;3.10;;;2.88;;
46334;SDS011;32051;48.882;9.210;2022-07-23T11:17:34;2.83;;;2.55;;
46334;SDS011;32051;48.882;9.210;2022-07-23T11:25:13;2.78;;;2.58;;
46334;SDS011;32051;48.882;9.210;2022-07-23T11:27:45;3.45;;;2.35;;
46334;SDS011;32051;48.882;9.210;2022-07-23T11:32:53;2.78;;;2.58;;
46334;SDS011;32051;48.882;9.210;2022-07-23T11:35:26;4.20;;;2.97;;
46334;SDS011;32051;48.882;9.210;2022-07-23T11:38:06;2.60;;;2.40;;
46334;SDS011;32051;48.882;9.210;2022-07-23T11:40:33;3.17;;;2.55;;
46334;SDS011;32051;48.882;9.210;2022-07-23T11:45:30;5.15;;;2.47;;
46334;SDS011;32051;48.882;9.210;2022-07-23T11:47:57;2.58;;;2.38;;
46334;SDS011;32051;48.882;9.210;2022-07-23T11:50:23;3.75;;;2.28;;
46334;SDS011;32051;48.882;9.210;2022-07-23T11:52:51;3.42;;;2.50;;
46334;SDS011;32051;48.882;9.210;2022-07-23T11:55:17;3.03;;;2.83;;
46334;SDS011;32051;48.882;9.210;2022-07-23T11:57:44;3.00;;;2.80;;
46334;SDS011;32051;48.882;9.210;2022-07-23T12:02:40;3.42;;;3.22;;
46334;SDS011;32051;48.882;9.210;2022-07-23T12:05:07;2.70;;;2.50;;
46334;SDS011;32051;48.882;9.210;2022-07-23T12:07:38;4.07;;;2.63;;
46334;SDS011;32051;48.882;9.210;2022-07-23T12:10:09;2.85;;;2.40;;
46334;SDS011;32051;48.882;9.210;2022-07-23T12:12:40;3.38;;;2.72;;
46334;SDS011;32051;48.882;9.210;2022-07-23T12:15:08;3.63;;;3.33;;
46334;SDS011;32051;48.882;9.210;2022-07-23T12:17:37;3.90;;;2.70;;
46334;SDS011;32051;48.882;9.210;2022-07-23T12:20:09;3.22;;;2.90;;
46334;SDS011;32051;48.882;9.210;2022-07-23T12:22:47;2.95;;;2.75;;
46334;SDS011;32051;48.882;9.210;2022-07-23T12:25:16;2.92;;;2.72;;
46334;SDS011;32051;48.882;9.210;2022-07-23T12:27:57;2.70;;;2.60;;
46334;SDS011;32051;48.882;9.210;2022-07-23T12:30:25;2.92;;;2.63;;
46334;SDS011;32051;48.882;9.210;2022-07-23T12:32:56;3.33;;;2.40;;
46334;SDS011;32051;48.882;9.210;2022-07-23T12:35:29;3.30;;;3.00;;
46334;SDS011;32051;48.882;9.210;2022-07-23T12:37:59;4.55;;;2.50;;
46334;SDS011;32051;48.882;9.210;2022-07-23T12:40:31;4.35;;;2.88;;
46334;SDS011;32051;48.882;9.210;2022-07-23T12:45:27;4.60;;;2.92;;
46334;SDS011;32051;48.882;9.210;2022-07-23T12:48:06;4.20;;;2.80;;
46334;SDS011;32051;48.882;9.210;2022-07-23T12:53:30;3.20;;;2.97;;
46334;SDS011;32051;48.882;9.210;2022-07-23T12:58:26;3.55;;;3.35;;
46334;SDS011;32051;48.882;9.210;2022-07-23T13:03:30;5.60;;;3.53;;
46334;SDS011;32051;48.882;9.210;2022-07-23T13:05:58;3.60;;;3.40;;
46334;SDS011;32051;48.882;9.210;2022-07-23T13:08:26;3.45;;;3.25;;
46334;SDS011;32051;48.882;9.210;2022-07-23T13:10:53;3.05;;;2.75;;
46334;SDS011;32051;48.882;9.210;2022-07-23T13:13:20;2.95;;;2.75;;
46334;SDS011;32051;48.882;9.210;2022-07-23T13:15:51;3.10;;;2.90;;
46334;SDS011;32051;48.882;9.210;2022-07-23T13:18:18;2.88;;;2.67;;
46334;SDS011;32051;48.882;9.210;2022-07-23T13:20:44;3.88;;;3.58;;
46334;SDS011;32051;48.882;9.210;2022-07-23T13:23:11;3.53;;;3.33;;
46334;SDS011;32051;48.882;9.210;2022-07-23T13:25:37;4.03;;;3.72;;
46334;SDS011;32051;48.882;9.210;2022-07-23T13:28:03;3.33;;;3.13;;
46334;SDS011;32051;48.882;9.210;2022-07-23T13:30:29;3.63;;;3.33;;
46334;SDS011;32051;48.882;9.210;2022-07-23T13:32:55;4.38;;;3.22;;
46334;SDS011;32051;48.882;9.210;2022-07-23T13:35:21;3.35;;;3.15;;
46334;SDS011;32051;48.882;9.210;2022-07-23T13:37:46;3.15;;;2.95;;
46334;SDS011;32051;48.882;9.210;2022-07-23T13:40:12;4.88;;;3.20;;
46334;SDS011;32051;48.882;9.210;2022-07-23T13:42:38;3.97;;;3.28;;
46334;SDS011;32051;48.882;9.210;2022-07-23T13:45:05;6.68;;;3.53;;
46334;SDS011;32051;48.882;9.210;2022-07-23T13:47:31;3.65;;;3.25;;
46334;SDS011;32051;48.882;9.210;2022-07-23T13:49:57;3.85;;;3.55;;
46334;SDS011;32051;48.882;9.210;2022-07-23T13:52:23;3.22;;;3.03;;
46334;SDS011;32051;48.882;9.210;2022-07-23T13:54:49;3.20;;;2.95;;
46334;SDS011;32051;48.882;9.210;2022-07-23T13:57:15;3.00;;;2.70;;
46334;SDS011;32051;48.882;9.210;2022-07-23T13:59:41;4.68;;;3.67;;
46334;SDS011;32051;48.882;9.210;2022-07-23T14:02:07;4.95;;;3.20;;
46334;SDS011;32051;48.882;9.210;2022-07-23T14:04:33;5.20;;;3.10;;
46334;SDS011;32051;48.882;9.210;2022-07-23T14:06:59;3.15;;;2.80;;
46334;SDS011;32051;48.882;9.210;2022-07-23T14:09:25;2.90;;;2.70;;
46334;SDS011;32051;48.882;9.210;2022-07-23T14:11:51;3.38;;;3.15;;
46334;SDS011;32051;48.882;9.210;2022-07-23T14:14:17;3.00;;;2.80;;
46334;SDS011;32051;48.882;9.210;2022-07-23T14:16:43;4.38;;;2.25;;
46334;SDS011;32051;48.882;9.210;2022-07-23T14:19:10;5.05;;;2.50;;
46334;SDS011;32051;48.882;9.210;2022-07-23T14:21:36;3.35;;;3.05;;
46334;SDS011;32051;48.882;9.210;2022-07-23T14:24:02;3.10;;;2.90;;
46334;SDS011;32051;48.882;9.210;2022-07-23T14:26:28;3.15;;;2.38;;
46334;SDS011;32051;48.882;9.210;2022-07-23T14:28:54;4.32;;;2.53;;
46334;SDS011;32051;48.882;9.210;2022-07-23T14:31:21;2.80;;;2.60;;
46334;SDS011;32051;48.882;9.210;2022-07-23T14:33:47;5.20;;;2.30;;
46334;SDS011;32051;48.882;9.210;2022-07-23T14:36:13;3.30;;;2.40;;
46334;SDS011;32051;48.882;9.210;2022-07-23T14:38:39;3.25;;;2.92;;
46334;SDS011;32051;48.882;9.210;2022-07-23T14:41:05;3.65;;;3.25;;
46334;SDS011;32051;48.882;9.210;2022-07-23T14:43:33;3.72;;;2.72;;
46334;SDS011;32051;48.882;9.210;2022-07-23T14:45:59;2.45;;;2.33;;
46334;SDS011;32051;48.882;9.210;2022-07-23T14:48:25;2.95;;;2.75;;
46334;SDS011;32051;48.882;9.210;2022-07-23T14:50:51;3.55;;;2.92;;
46334;SDS011;32051;48.882;9.210;2022-07-23T14:53:17;3.50;;;3.20;;
46334;SDS011;32051;48.882;9.210;2022-07-23T14:55:42;2.63;;;2.47;;
46334;SDS011;32051;48.882;9.210;2022-07-23T14:58:08;3.60;;;3.40;;
46334;SDS011;32051;48.882;9.210;2022-07-23T15:00:34;3.67;;;3.45;;
46334;SDS011;32051;48.882;9.210;2022-07-23T15:03:00;4.82;;;4.43;;
46334;SDS011;32051;48.882;9.210;2022-07-23T15:05:26;8.73;;;4.13;;
46334;SDS011;32051;48.882;9.210;2022-07-23T15:07:53;5.97;;;3.63;;
46334;SDS011;32051;48.882;9.210;2022-07-23T15:10:20;3.10;;;2.90;;
46334;SDS011;32051;48.882;9.210;2022-07-23T15:12:46;3.40;;;3.10;;
46334;SDS011;32051;48.882;9.210;2022-07-23T15:15:12;5.28;;;3.25;;
46334;SDS011;32051;48.882;9.210;2022-07-23T15:17:39;4.15;;;3.85;;
46334;SDS011;32051;48.882;9.210;2022-07-23T15:20:05;5.80;;;3.53;;
46334;SDS011;32051;48.882;9.210;2022-07-23T15:22:31;3.63;;;3.42;;
46334;SDS011;32051;48.882;9.210;2022-07-23T15:24:57;3.88;;;3.55;;
46334;SDS011;32051;48.882;9.210;2022-07-23T15:27:23;7.40;;;4.00;;
46334;SDS011;32051;48.882;9.210;2022-07-23T15:29:49;4.13;;;3.78;;